sensor_id;sensor_type;location;lat;lon;timestamp;P1;durP1;ratioP1;P2;durP2;ratioP2
55455;SDS011;46961;52.836;6.376;2022-07-29T00:01:04;3.10;;;1.48;;
55455;SDS011;46961;52.836;6.376;2022-07-29T00:03:29;2.50;;;1.30;;
55455;SDS011;46961;52.836;6.376;2022-07-29T00:05:54;2.25;;;1.25;;
55455;SDS011;46961;52.836;6.376;2022-07-29T00:08:20;4.95;;;1.50;;
55455;SDS011;46961;52.836;6.376;2022-07-29T00:10:45;3.50;;;1.55;;
55455;SDS011;46961;52.836;6.376;2022-07-29T00:13:11;5.35;;;1.30;;
55455;SDS011;46961;52.836;6.376;2022-07-29T00:15:36;1.80;;;1.38;;
55455;SDS011;46961;52.836;6.376;2022-07-29T00:18:02;3.90;;;1.35;;
55455;SDS011;46961;52.836;6.376;2022-07-29T00:20:27;3.80;;;1.38;;
55455;SDS011;46961;52.836;6.376;2022-07-29T00:22:53;1.40;;;1.30;;
55455;SDS011;46961;52.836;6.376;2022-07-29T00:25:18;3.17;;;1.48;;
55455;SDS011;46961;52.836;6.376;2022-07-29T00:27:44;4.13;;;1.50;;
55455;SDS011;46961;52.836;6.376;2022-07-29T00:30:11;6.55;;;1.30;;
55455;SDS011;46961;52.836;6.376;2022-07-29T00:32:37;2.83;;;1.70;;
55455;SDS011;46961;52.836;6.376;2022-07-29T00:35:05;2.60;;;1.50;;
55455;SDS011;46961;52.836;6.376;2022-07-29T00:37:50;1.50;;;1.40;;
55455;SDS011;46961;52.836;6.376;2022-07-29T00:40:16;2.75;;;1.30;;
55455;SDS011;46961;52.836;6.376;2022-07-29T00:42:42;6.82;;;1.80;;
55455;SDS011;46961;52.836;6.376;2022-07-29T00:45:15;2.92;;;1.30;;
55455;SDS011;46961;52.836;6.376;2022-07-29T00:47:41;2.28;;;1.40;;
55455;SDS011;46961;52.836;6.376;2022-07-29T00:50:07;3.47;;;1.63;;
55455;SDS011;46961;52.836;6.376;2022-07-29T00:52:34;1.63;;;1.33;;
55455;SDS011;46961;52.836;6.376;2022-07-29T00:55:05;1.33;;;1.23;;
55455;SDS011;46961;52.836;6.376;2022-07-29T00:57:33;3.42;;;1.83;;
55455;SDS011;46961;52.836;6.376;2022-07-29T00:59:59;3.70;;;2.03;;
55455;SDS011;46961;52.836;6.376;2022-07-29T01:02:25;7.18;;;2.03;;
55455;SDS011;46961;52.836;6.376;2022-07-29T01:04:50;4.38;;;1.80;;
55455;SDS011;46961;52.836;6.376;2022-07-29T01:07:16;2.42;;;1.63;;
55455;SDS011;46961;52.836;6.376;2022-07-29T01:09:42;1.85;;;1.70;;
55455;SDS011;46961;52.836;6.376;2022-07-29T01:12:10;3.90;;;1.73;;
55455;SDS011;46961;52.836;6.376;2022-07-29T01:14:37;1.92;;;1.40;;
55455;SDS011;46961;52.836;6.376;2022-07-29T01:28:06;3.03;;;2.10;;
55455;SDS011;46961;52.836;6.376;2022-07-29T01:30:36;2.05;;;1.70;;
55455;SDS011;46961;52.836;6.376;2022-07-29T01:33:06;3.85;;;1.98;;
55455;SDS011;46961;52.836;6.376;2022-07-29T01:35:36;11.00;;;2.30;;
55455;SDS011;46961;52.836;6.376;2022-07-29T01:38:13;3.13;;;1.73;;
55455;SDS011;46961;52.836;6.376;2022-07-29T01:40:52;2.80;;;2.55;;
55455;SDS011;46961;52.836;6.376;2022-07-29T01:43:27;4.07;;;2.17;;
55455;SDS011;46961;52.836;6.376;2022-07-29T01:46:01;2.55;;;2.35;;
55455;SDS011;46961;52.836;6.376;2022-07-29T01:48:43;1.88;;;1.77;;
55455;SDS011;46961;52.836;6.376;2022-07-29T01:51:25;3.55;;;1.65;;
55455;SDS011;46961;52.836;6.376;2022-07-29T01:54:08;3.92;;;1.98;;
55455;SDS011;46961;52.836;6.376;2022-07-29T01:56:38;2.83;;;1.70;;
55455;SDS011;46961;52.836;6.376;2022-07-29T01:59:04;7.75;;;1.85;;
55455;SDS011;46961;52.836;6.376;2022-07-29T02:01:33;1.77;;;1.40;;
55455;SDS011;46961;52.836;6.376;2022-07-29T02:04:04;5.05;;;1.95;;
55455;SDS011;46961;52.836;6.376;2022-07-29T02:06:33;3.13;;;1.80;;
55455;SDS011;46961;52.836;6.376;2022-07-29T02:09:02;2.67;;;1.80;;
55455;SDS011;46961;52.836;6.376;2022-07-29T02:11:29;1.60;;;1.40;;
55455;SDS011;46961;52.836;6.376;2022-07-29T02:13:57;4.95;;;1.95;;
55455;SDS011;46961;52.836;6.376;2022-07-29T02:16:24;3.08;;;1.45;;
55455;SDS011;46961;52.836;6.376;2022-07-29T02:18:52;3.97;;;1.58;;
55455;SDS011;46961;52.836;6.376;2022-07-29T02:21:19;7.20;;;2.78;;
55455;SDS011;46961;52.836;6.376;2022-07-29T02:23:47;3.85;;;1.85;;
55455;SDS011;46961;52.836;6.376;2022-07-29T02:26:14;7.15;;;1.70;;
55455;SDS011;46961;52.836;6.376;2022-07-29T02:28:42;3.75;;;1.40;;
55455;SDS011;46961;52.836;6.376;2022-07-29T02:31:09;1.58;;;1.48;;
55455;SDS011;46961;52.836;6.376;2022-07-29T02:33:36;1.60;;;1.38;;
55455;SDS011;46961;52.836;6.376;2022-07-29T02:36:05;3.55;;;2.03;;
55455;SDS011;46961;52.836;6.376;2022-07-29T02:38:31;2.08;;;1.52;;
55455;SDS011;46961;52.836;6.376;2022-07-29T02:41:19;1.75;;;1.40;;
55455;SDS011;46961;52.836;6.376;2022-07-29T02:43:48;5.32;;;1.77;;
55455;SDS011;46961;52.836;6.376;2022-07-29T02:46:19;5.82;;;1.38;;
55455;SDS011;46961;52.836;6.376;2022-07-29T02:48:49;3.05;;;1.60;;
55455;SDS011;46961;52.836;6.376;2022-07-29T02:51:24;3.47;;;1.77;;
55455;SDS011;46961;52.836;6.376;2022-07-29T02:56:23;1.83;;;1.35;;
55455;SDS011;46961;52.836;6.376;2022-07-29T02:58:57;2.05;;;1.20;;
55455;SDS011;46961;52.836;6.376;2022-07-29T03:01:26;4.15;;;1.52;;
55455;SDS011;46961;52.836;6.376;2022-07-29T03:03:56;1.50;;;1.30;;
55455;SDS011;46961;52.836;6.376;2022-07-29T03:06:27;3.72;;;1.60;;
55455;SDS011;46961;52.836;6.376;2022-07-29T03:08:53;4.75;;;1.55;;
55455;SDS011;46961;52.836;6.376;2022-07-29T03:11:20;3.28;;;1.38;;
55455;SDS011;46961;52.836;6.376;2022-07-29T03:13:46;2.47;;;1.38;;
55455;SDS011;46961;52.836;6.376;2022-07-29T03:16:11;2.65;;;1.40;;
55455;SDS011;46961;52.836;6.376;2022-07-29T03:18:38;2.45;;;1.13;;
55455;SDS011;46961;52.836;6.376;2022-07-29T03:21:04;3.50;;;1.10;;
55455;SDS011;46961;52.836;6.376;2022-07-29T03:23:30;2.58;;;1.20;;
55455;SDS011;46961;52.836;6.376;2022-07-29T03:25:55;6.05;;;1.58;;
55455;SDS011;46961;52.836;6.376;2022-07-29T03:28:21;2.95;;;1.35;;
55455;SDS011;46961;52.836;6.376;2022-07-29T03:30:47;3.85;;;1.30;;
55455;SDS011;46961;52.836;6.376;2022-07-29T03:33:14;3.20;;;1.60;;
55455;SDS011;46961;52.836;6.376;2022-07-29T03:35:39;5.93;;;1.40;;
55455;SDS011;46961;52.836;6.376;2022-07-29T03:38:05;4.82;;;1.90;;
55455;SDS011;46961;52.836;6.376;2022-07-29T03:40:31;2.00;;;1.20;;
55455;SDS011;46961;52.836;6.376;2022-07-29T03:43:00;4.70;;;1.60;;
55455;SDS011;46961;52.836;6.376;2022-07-29T03:45:28;3.28;;;1.85;;
55455;SDS011;46961;52.836;6.376;2022-07-29T03:47:58;4.07;;;1.25;;
55455;SDS011;46961;52.836;6.376;2022-07-29T03:50:27;3.45;;;1.55;;
55455;SDS011;46961;52.836;6.376;2022-07-29T03:52:55;4.93;;;1.85;;
55455;SDS011;46961;52.836;6.376;2022-07-29T03:55:21;2.95;;;1.30;;
55455;SDS011;46961;52.836;6.376;2022-07-29T03:57:47;2.40;;;1.42;;
55455;SDS011;46961;52.836;6.376;2022-07-29T04:00:14;8.02;;;1.83;;
55455;SDS011;46961;52.836;6.376;2022-07-29T04:02:40;3.58;;;1.55;;
55455;SDS011;46961;52.836;6.376;2022-07-29T04:05:12;3.70;;;1.52;;
55455;SDS011;46961;52.836;6.376;2022-07-29T04:07:39;2.20;;;1.27;;
55455;SDS011;46961;52.836;6.376;2022-07-29T04:10:08;5.13;;;1.52;;
55455;SDS011;46961;52.836;6.376;2022-07-29T04:12:33;4.45;;;1.70;;
55455;SDS011;46961;52.836;6.376;2022-07-29T04:14:59;3.58;;;1.70;;
55455;SDS011;46961;52.836;6.376;2022-07-29T04:17:24;3.28;;;1.20;;
55455;SDS011;46961;52.836;6.376;2022-07-29T04:19:50;3.00;;;1.60;;
55455;SDS011;46961;52.836;6.376;2022-07-29T04:22:15;2.08;;;1.48;;
55455;SDS011;46961;52.836;6.376;2022-07-29T04:24:40;2.63;;;1.48;;
55455;SDS011;46961;52.836;6.376;2022-07-29T04:27:06;4.20;;;1.80;;
55455;SDS011;46961;52.836;6.376;2022-07-29T04:29:31;3.20;;;1.40;;
55455;SDS011;46961;52.836;6.376;2022-07-29T04:31:57;3.42;;;1.20;;
55455;SDS011;46961;52.836;6.376;2022-07-29T04:34:22;2.78;;;1.52;;
55455;SDS011;46961;52.836;6.376;2022-07-29T04:36:47;4.45;;;1.45;;
55455;SDS011;46961;52.836;6.376;2022-07-29T04:39:13;2.97;;;1.35;;
55455;SDS011;46961;52.836;6.376;2022-07-29T04:41:38;4.97;;;1.60;;
55455;SDS011;46961;52.836;6.376;2022-07-29T04:44:04;3.47;;;1.40;;
55455;SDS011;46961;52.836;6.376;2022-07-29T04:46:30;2.95;;;1.40;;
55455;SDS011;46961;52.836;6.376;2022-07-29T04:48:56;2.45;;;1.42;;
55455;SDS011;46961;52.836;6.376;2022-07-29T04:51:21;3.25;;;2.40;;
55455;SDS011;46961;52.836;6.376;2022-07-29T04:53:46;4.28;;;1.58;;
55455;SDS011;46961;52.836;6.376;2022-07-29T04:56:12;6.80;;;1.60;;
55455;SDS011;46961;52.836;6.376;2022-07-29T04:58:38;6.80;;;1.65;;
55455;SDS011;46961;52.836;6.376;2022-07-29T05:01:03;3.95;;;1.73;;
55455;SDS011;46961;52.836;6.376;2022-07-29T05:03:29;6.20;;;1.70;;
55455;SDS011;46961;52.836;6.376;2022-07-29T05:05:54;2.70;;;1.52;;
55455;SDS011;46961;52.836;6.376;2022-07-29T05:08:23;3.13;;;1.65;;
55455;SDS011;46961;52.836;6.376;2022-07-29T05:10:48;2.88;;;1.98;;
55455;SDS011;46961;52.836;6.376;2022-07-29T05:13:13;4.63;;;2.10;;
55455;SDS011;46961;52.836;6.376;2022-07-29T05:15:39;2.97;;;1.45;;
55455;SDS011;46961;52.836;6.376;2022-07-29T05:18:04;2.47;;;1.90;;
55455;SDS011;46961;52.836;6.376;2022-07-29T05:20:30;2.72;;;1.48;;
55455;SDS011;46961;52.836;6.376;2022-07-29T05:22:57;3.08;;;1.75;;
55455;SDS011;46961;52.836;6.376;2022-07-29T05:25:23;2.05;;;1.60;;
55455;SDS011;46961;52.836;6.376;2022-07-29T05:27:50;3.25;;;1.58;;
55455;SDS011;46961;52.836;6.376;2022-07-29T05:30:16;3.90;;;1.98;;
55455;SDS011;46961;52.836;6.376;2022-07-29T05:32:42;3.58;;;1.95;;
55455;SDS011;46961;52.836;6.376;2022-07-29T05:35:11;5.95;;;1.90;;
55455;SDS011;46961;52.836;6.376;2022-07-29T05:37:36;7.88;;;2.53;;
55455;SDS011;46961;52.836;6.376;2022-07-29T05:40:02;2.97;;;1.80;;
55455;SDS011;46961;52.836;6.376;2022-07-29T05:42:28;4.20;;;1.70;;
55455;SDS011;46961;52.836;6.376;2022-07-29T05:44:54;3.08;;;1.90;;
55455;SDS011;46961;52.836;6.376;2022-07-29T05:47:19;6.25;;;2.03;;
55455;SDS011;46961;52.836;6.376;2022-07-29T05:49:45;5.50;;;2.28;;
55455;SDS011;46961;52.836;6.376;2022-07-29T05:52:11;3.63;;;1.67;;
55455;SDS011;46961;52.836;6.376;2022-07-29T05:54:38;4.40;;;1.98;;
55455;SDS011;46961;52.836;6.376;2022-07-29T05:57:03;2.53;;;1.77;;
55455;SDS011;46961;52.836;6.376;2022-07-29T05:59:30;3.50;;;1.92;;
55455;SDS011;46961;52.836;6.376;2022-07-29T06:01:56;2.38;;;2.08;;
55455;SDS011;46961;52.836;6.376;2022-07-29T06:04:22;3.08;;;1.63;;
55455;SDS011;46961;52.836;6.376;2022-07-29T06:06:47;4.93;;;2.13;;
55455;SDS011;46961;52.836;6.376;2022-07-29T06:09:12;6.82;;;1.73;;
55455;SDS011;46961;52.836;6.376;2022-07-29T06:11:38;6.15;;;2.00;;
55455;SDS011;46961;52.836;6.376;2022-07-29T06:14:04;2.45;;;1.60;;
55455;SDS011;46961;52.836;6.376;2022-07-29T06:16:29;3.70;;;1.95;;
55455;SDS011;46961;52.836;6.376;2022-07-29T06:18:55;2.88;;;1.90;;
55455;SDS011;46961;52.836;6.376;2022-07-29T06:21:20;3.83;;;2.15;;
55455;SDS011;46961;52.836;6.376;2022-07-29T06:23:45;2.92;;;1.85;;
55455;SDS011;46961;52.836;6.376;2022-07-29T06:26:11;5.05;;;1.80;;
55455;SDS011;46961;52.836;6.376;2022-07-29T06:28:36;3.72;;;1.90;;
55455;SDS011;46961;52.836;6.376;2022-07-29T06:31:02;3.78;;;1.80;;
55455;SDS011;46961;52.836;6.376;2022-07-29T06:33:27;9.00;;;2.47;;
55455;SDS011;46961;52.836;6.376;2022-07-29T06:35:52;6.43;;;1.92;;
55455;SDS011;46961;52.836;6.376;2022-07-29T06:38:18;3.78;;;1.80;;
55455;SDS011;46961;52.836;6.376;2022-07-29T06:40:44;6.60;;;1.67;;
55455;SDS011;46961;52.836;6.376;2022-07-29T06:43:26;1.60;;;1.50;;
55455;SDS011;46961;52.836;6.376;2022-07-29T06:45:58;3.40;;;1.65;;
55455;SDS011;46961;52.836;6.376;2022-07-29T06:48:28;3.22;;;1.58;;
55455;SDS011;46961;52.836;6.376;2022-07-29T06:50:54;3.63;;;1.80;;
55455;SDS011;46961;52.836;6.376;2022-07-29T06:53:19;4.68;;;2.15;;
55455;SDS011;46961;52.836;6.376;2022-07-29T06:55:45;2.47;;;1.73;;
55455;SDS011;46961;52.836;6.376;2022-07-29T06:58:10;5.50;;;2.50;;
55455;SDS011;46961;52.836;6.376;2022-07-29T07:00:36;3.78;;;1.80;;
55455;SDS011;46961;52.836;6.376;2022-07-29T07:03:02;6.28;;;2.15;;
55455;SDS011;46961;52.836;6.376;2022-07-29T07:05:27;2.78;;;2.33;;
55455;SDS011;46961;52.836;6.376;2022-07-29T07:07:52;7.55;;;2.45;;
55455;SDS011;46961;52.836;6.376;2022-07-29T07:10:18;6.15;;;1.80;;
55455;SDS011;46961;52.836;6.376;2022-07-29T07:12:43;4.07;;;1.75;;
55455;SDS011;46961;52.836;6.376;2022-07-29T07:15:09;5.28;;;2.35;;
55455;SDS011;46961;52.836;6.376;2022-07-29T07:17:34;4.45;;;1.83;;
55455;SDS011;46961;52.836;6.376;2022-07-29T07:20:00;4.30;;;2.15;;
55455;SDS011;46961;52.836;6.376;2022-07-29T07:22:25;5.68;;;1.80;;
55455;SDS011;46961;52.836;6.376;2022-07-29T07:24:51;3.28;;;1.98;;
55455;SDS011;46961;52.836;6.376;2022-07-29T07:27:16;5.90;;;1.88;;
55455;SDS011;46961;52.836;6.376;2022-07-29T07:29:41;2.53;;;1.80;;
55455;SDS011;46961;52.836;6.376;2022-07-29T07:32:07;1.98;;;1.55;;
55455;SDS011;46961;52.836;6.376;2022-07-29T07:34:35;4.28;;;3.15;;
55455;SDS011;46961;52.836;6.376;2022-07-29T07:37:02;2.50;;;1.75;;
55455;SDS011;46961;52.836;6.376;2022-07-29T07:39:28;4.45;;;2.63;;
55455;SDS011;46961;52.836;6.376;2022-07-29T07:41:53;3.75;;;2.85;;
55455;SDS011;46961;52.836;6.376;2022-07-29T07:44:18;4.25;;;1.85;;
55455;SDS011;46961;52.836;6.376;2022-07-29T07:46:44;5.57;;;2.25;;
55455;SDS011;46961;52.836;6.376;2022-07-29T07:49:10;5.00;;;2.08;;
55455;SDS011;46961;52.836;6.376;2022-07-29T07:51:35;5.57;;;1.80;;
55455;SDS011;46961;52.836;6.376;2022-07-29T07:54:01;5.63;;;2.22;;
55455;SDS011;46961;52.836;6.376;2022-07-29T07:56:27;3.53;;;2.00;;
55455;SDS011;46961;52.836;6.376;2022-07-29T07:58:52;5.38;;;1.80;;
55455;SDS011;46961;52.836;6.376;2022-07-29T08:01:18;5.80;;;2.20;;
55455;SDS011;46961;52.836;6.376;2022-07-29T08:03:46;3.20;;;2.00;;
55455;SDS011;46961;52.836;6.376;2022-07-29T08:06:12;2.40;;;2.03;;
55455;SDS011;46961;52.836;6.376;2022-07-29T08:08:40;9.23;;;2.47;;
55455;SDS011;46961;52.836;6.376;2022-07-29T08:11:06;2.90;;;2.40;;
55455;SDS011;46961;52.836;6.376;2022-07-29T08:13:31;2.92;;;2.25;;
55455;SDS011;46961;52.836;6.376;2022-07-29T08:15:57;5.55;;;2.40;;
55455;SDS011;46961;52.836;6.376;2022-07-29T08:18:25;5.18;;;1.83;;
55455;SDS011;46961;52.836;6.376;2022-07-29T08:20:55;10.43;;;2.35;;
55455;SDS011;46961;52.836;6.376;2022-07-29T08:23:21;5.57;;;2.08;;
55455;SDS011;46961;52.836;6.376;2022-07-29T08:25:48;3.28;;;1.85;;
55455;SDS011;46961;52.836;6.376;2022-07-29T08:28:13;2.20;;;1.80;;
55455;SDS011;46961;52.836;6.376;2022-07-29T08:30:39;5.95;;;2.40;;
55455;SDS011;46961;52.836;6.376;2022-07-29T08:33:05;3.05;;;2.20;;
55455;SDS011;46961;52.836;6.376;2022-07-29T08:35:30;4.32;;;2.10;;
55455;SDS011;46961;52.836;6.376;2022-07-29T08:37:56;4.55;;;2.10;;
55455;SDS011;46961;52.836;6.376;2022-07-29T08:40:22;2.67;;;2.08;;
55455;SDS011;46961;52.836;6.376;2022-07-29T08:42:48;4.03;;;1.90;;
55455;SDS011;46961;52.836;6.376;2022-07-29T08:45:14;5.50;;;2.10;;
55455;SDS011;46961;52.836;6.376;2022-07-29T08:47:40;3.38;;;1.98;;
55455;SDS011;46961;52.836;6.376;2022-07-29T08:50:06;5.03;;;2.03;;
55455;SDS011;46961;52.836;6.376;2022-07-29T08:52:35;4.47;;;2.05;;
55455;SDS011;46961;52.836;6.376;2022-07-29T08:55:04;6.35;;;2.10;;
55455;SDS011;46961;52.836;6.376;2022-07-29T08:57:33;3.90;;;2.10;;
55455;SDS011;46961;52.836;6.376;2022-07-29T09:00:00;5.93;;;2.00;;
55455;SDS011;46961;52.836;6.376;2022-07-29T09:02:26;3.33;;;2.00;;
55455;SDS011;46961;52.836;6.376;2022-07-29T09:04:53;6.45;;;3.53;;
55455;SDS011;46961;52.836;6.376;2022-07-29T09:07:19;5.13;;;1.98;;
55455;SDS011;46961;52.836;6.376;2022-07-29T09:09:44;9.23;;;3.22;;
55455;SDS011;46961;52.836;6.376;2022-07-29T09:12:10;7.72;;;3.15;;
55455;SDS011;46961;52.836;6.376;2022-07-29T09:14:37;8.20;;;2.90;;
55455;SDS011;46961;52.836;6.376;2022-07-29T09:17:05;6.97;;;3.00;;
55455;SDS011;46961;52.836;6.376;2022-07-29T09:19:32;5.45;;;2.35;;
55455;SDS011;46961;52.836;6.376;2022-07-29T09:22:03;5.90;;;2.60;;
55455;SDS011;46961;52.836;6.376;2022-07-29T09:27:10;4.53;;;2.15;;
55455;SDS011;46961;52.836;6.376;2022-07-29T09:29:42;6.90;;;2.90;;
55455;SDS011;46961;52.836;6.376;2022-07-29T09:32:08;4.28;;;2.20;;
55455;SDS011;46961;52.836;6.376;2022-07-29T09:34:35;6.97;;;2.15;;
55455;SDS011;46961;52.836;6.376;2022-07-29T09:37:00;3.85;;;2.10;;
55455;SDS011;46961;52.836;6.376;2022-07-29T09:39:26;6.35;;;3.40;;
55455;SDS011;46961;52.836;6.376;2022-07-29T09:41:54;4.45;;;2.20;;
55455;SDS011;46961;52.836;6.376;2022-07-29T09:44:21;7.90;;;2.58;;
55455;SDS011;46961;52.836;6.376;2022-07-29T09:49:24;3.60;;;2.00;;
55455;SDS011;46961;52.836;6.376;2022-07-29T09:54:36;6.85;;;2.10;;
55455;SDS011;46961;52.836;6.376;2022-07-29T09:57:02;3.88;;;2.25;;
55455;SDS011;46961;52.836;6.376;2022-07-29T09:59:33;3.90;;;2.10;;
55455;SDS011;46961;52.836;6.376;2022-07-29T10:01:59;5.85;;;2.05;;
55455;SDS011;46961;52.836;6.376;2022-07-29T10:04:35;2.70;;;2.22;;
55455;SDS011;46961;52.836;6.376;2022-07-29T10:07:02;4.88;;;2.03;;
55455;SDS011;46961;52.836;6.376;2022-07-29T10:09:30;3.90;;;2.05;;
55455;SDS011;46961;52.836;6.376;2022-07-29T10:12:03;6.18;;;2.47;;
55455;SDS011;46961;52.836;6.376;2022-07-29T10:14:34;7.28;;;2.30;;
55455;SDS011;46961;52.836;6.376;2022-07-29T10:17:00;3.15;;;2.13;;
55455;SDS011;46961;52.836;6.376;2022-07-29T10:19:30;6.90;;;2.78;;
55455;SDS011;46961;52.836;6.376;2022-07-29T10:21:57;3.45;;;2.50;;
55455;SDS011;46961;52.836;6.376;2022-07-29T10:24:27;3.63;;;2.55;;
55455;SDS011;46961;52.836;6.376;2022-07-29T10:26:55;9.65;;;2.17;;
55455;SDS011;46961;52.836;6.376;2022-07-29T10:29:22;6.35;;;2.20;;
55455;SDS011;46961;52.836;6.376;2022-07-29T10:42:54;6.55;;;3.08;;
55455;SDS011;46961;52.836;6.376;2022-07-29T10:45:26;7.63;;;2.42;;
55455;SDS011;46961;52.836;6.376;2022-07-29T10:48:02;3.95;;;2.63;;
55455;SDS011;46961;52.836;6.376;2022-07-29T10:50:51;3.97;;;2.95;;
55455;SDS011;46961;52.836;6.376;2022-07-29T10:53:22;3.08;;;2.75;;
55455;SDS011;46961;52.836;6.376;2022-07-29T10:55:48;3.20;;;2.85;;
55455;SDS011;46961;52.836;6.376;2022-07-29T10:58:20;7.22;;;2.72;;
55455;SDS011;46961;52.836;6.376;2022-07-29T11:00:52;5.97;;;3.42;;
55455;SDS011;46961;52.836;6.376;2022-07-29T11:06:06;3.83;;;2.60;;
55455;SDS011;46961;52.836;6.376;2022-07-29T11:08:32;5.63;;;2.90;;
55455;SDS011;46961;52.836;6.376;2022-07-29T11:16:15;5.18;;;2.38;;
55455;SDS011;46961;52.836;6.376;2022-07-29T11:21:52;7.82;;;2.72;;
55455;SDS011;46961;52.836;6.376;2022-07-29T11:24:27;5.13;;;2.90;;
55455;SDS011;46961;52.836;6.376;2022-07-29T11:27:15;8.02;;;2.78;;
55455;SDS011;46961;52.836;6.376;2022-07-29T11:29:55;5.90;;;2.50;;
55455;SDS011;46961;52.836;6.376;2022-07-29T11:32:23;4.28;;;2.35;;
55455;SDS011;46961;52.836;6.376;2022-07-29T11:37:40;8.07;;;2.90;;
55455;SDS011;46961;52.836;6.376;2022-07-29T11:44:58;4.47;;;2.50;;
55455;SDS011;46961;52.836;6.376;2022-07-29T11:47:27;5.35;;;3.10;;
55455;SDS011;46961;52.836;6.376;2022-07-29T11:49:55;10.55;;;2.92;;
55455;SDS011;46961;52.836;6.376;2022-07-29T11:52:22;3.95;;;2.70;;
55455;SDS011;46961;52.836;6.376;2022-07-29T11:54:48;6.82;;;2.83;;
55455;SDS011;46961;52.836;6.376;2022-07-29T11:57:18;4.70;;;3.15;;
55455;SDS011;46961;52.836;6.376;2022-07-29T11:59:46;5.90;;;2.58;;
55455;SDS011;46961;52.836;6.376;2022-07-29T12:02:12;5.00;;;2.55;;
55455;SDS011;46961;52.836;6.376;2022-07-29T12:07:17;5.22;;;2.88;;
55455;SDS011;46961;52.836;6.376;2022-07-29T12:09:50;7.75;;;2.92;;
55455;SDS011;46961;52.836;6.376;2022-07-29T12:12:16;12.68;;;3.45;;
55455;SDS011;46961;52.836;6.376;2022-07-29T12:14:42;7.35;;;2.95;;
55455;SDS011;46961;52.836;6.376;2022-07-29T12:17:24;6.57;;;2.80;;
55455;SDS011;46961;52.836;6.376;2022-07-29T12:19:53;6.10;;;2.50;;
55455;SDS011;46961;52.836;6.376;2022-07-29T12:22:29;2.92;;;2.35;;
55455;SDS011;46961;52.836;6.376;2022-07-29T12:25:00;5.32;;;3.15;;
55455;SDS011;46961;52.836;6.376;2022-07-29T12:27:27;7.05;;;2.45;;
55455;SDS011;46961;52.836;6.376;2022-07-29T12:29:59;6.45;;;2.20;;
55455;SDS011;46961;52.836;6.376;2022-07-29T12:32:36;5.43;;;2.95;;
55455;SDS011;46961;52.836;6.376;2022-07-29T12:35:07;5.10;;;2.70;;
55455;SDS011;46961;52.836;6.376;2022-07-29T12:37:34;2.95;;;2.10;;
55455;SDS011;46961;52.836;6.376;2022-07-29T12:40:05;8.13;;;3.20;;
55455;SDS011;46961;52.836;6.376;2022-07-29T12:42:35;4.93;;;2.30;;
55455;SDS011;46961;52.836;6.376;2022-07-29T12:45:01;5.88;;;2.50;;
55455;SDS011;46961;52.836;6.376;2022-07-29T12:47:27;6.78;;;2.22;;
55455;SDS011;46961;52.836;6.376;2022-07-29T12:50:09;5.00;;;1.70;;
55455;SDS011;46961;52.836;6.376;2022-07-29T12:52:43;5.78;;;2.13;;
55455;SDS011;46961;52.836;6.376;2022-07-29T12:55:09;5.43;;;2.50;;
55455;SDS011;46961;52.836;6.376;2022-07-29T12:57:48;8.43;;;2.88;;
55455;SDS011;46961;52.836;6.376;2022-07-29T13:00:21;5.45;;;2.53;;
55455;SDS011;46961;52.836;6.376;2022-07-29T13:02:54;4.85;;;2.20;;
55455;SDS011;46961;52.836;6.376;2022-07-29T13:05:20;3.83;;;2.13;;
55455;SDS011;46961;52.836;6.376;2022-07-29T13:07:46;4.00;;;2.38;;
55455;SDS011;46961;52.836;6.376;2022-07-29T13:10:12;3.92;;;2.40;;
55455;SDS011;46961;52.836;6.376;2022-07-29T13:13:00;5.60;;;2.17;;
55455;SDS011;46961;52.836;6.376;2022-07-29T13:15:34;7.85;;;3.55;;
55455;SDS011;46961;52.836;6.376;2022-07-29T13:18:00;5.80;;;2.50;;
55455;SDS011;46961;52.836;6.376;2022-07-29T13:20:27;4.88;;;3.00;;
55455;SDS011;46961;52.836;6.376;2022-07-29T13:22:59;9.23;;;2.13;;
55455;SDS011;46961;52.836;6.376;2022-07-29T13:25:26;6.63;;;2.50;;
55455;SDS011;46961;52.836;6.376;2022-07-29T13:27:56;6.65;;;2.28;;
55455;SDS011;46961;52.836;6.376;2022-07-29T13:30:23;3.72;;;2.20;;
55455;SDS011;46961;52.836;6.376;2022-07-29T13:32:49;2.67;;;1.98;;
55455;SDS011;46961;52.836;6.376;2022-07-29T13:35:16;5.93;;;1.95;;
55455;SDS011;46961;52.836;6.376;2022-07-29T13:37:42;4.40;;;1.90;;
55455;SDS011;46961;52.836;6.376;2022-07-29T13:40:08;5.53;;;2.53;;
55455;SDS011;46961;52.836;6.376;2022-07-29T13:42:34;3.50;;;2.47;;
55455;SDS011;46961;52.836;6.376;2022-07-29T13:45:00;5.07;;;1.95;;
55455;SDS011;46961;52.836;6.376;2022-07-29T13:47:26;6.70;;;2.42;;
55455;SDS011;46961;52.836;6.376;2022-07-29T13:49:52;7.25;;;2.55;;
55455;SDS011;46961;52.836;6.376;2022-07-29T13:52:18;6.28;;;2.53;;
55455;SDS011;46961;52.836;6.376;2022-07-29T13:54:44;3.83;;;1.60;;
55455;SDS011;46961;52.836;6.376;2022-07-29T13:57:10;4.45;;;1.80;;
55455;SDS011;46961;52.836;6.376;2022-07-29T13:59:40;5.22;;;1.65;;
55455;SDS011;46961;52.836;6.376;2022-07-29T14:02:10;6.87;;;2.57;;
55455;SDS011;46961;52.836;6.376;2022-07-29T14:04:36;5.47;;;2.13;;
55455;SDS011;46961;52.836;6.376;2022-07-29T14:07:01;5.70;;;1.92;;
55455;SDS011;46961;52.836;6.376;2022-07-29T14:09:27;8.77;;;2.38;;
55455;SDS011;46961;52.836;6.376;2022-07-29T14:11:52;3.00;;;1.92;;
55455;SDS011;46961;52.836;6.376;2022-07-29T14:14:19;4.28;;;1.90;;
55455;SDS011;46961;52.836;6.376;2022-07-29T14:16:44;3.83;;;1.60;;
55455;SDS011;46961;52.836;6.376;2022-07-29T14:19:10;4.80;;;1.75;;
55455;SDS011;46961;52.836;6.376;2022-07-29T14:21:36;8.82;;;2.13;;
55455;SDS011;46961;52.836;6.376;2022-07-29T14:24:05;7.05;;;2.80;;
55455;SDS011;46961;52.836;6.376;2022-07-29T14:26:31;4.28;;;2.33;;
55455;SDS011;46961;52.836;6.376;2022-07-29T14:28:56;6.65;;;2.97;;
55455;SDS011;46961;52.836;6.376;2022-07-29T14:31:22;5.13;;;2.45;;
55455;SDS011;46961;52.836;6.376;2022-07-29T14:33:47;5.53;;;1.75;;
55455;SDS011;46961;52.836;6.376;2022-07-29T14:36:13;2.53;;;1.77;;
55455;SDS011;46961;52.836;6.376;2022-07-29T14:38:38;3.35;;;1.88;;
55455;SDS011;46961;52.836;6.376;2022-07-29T14:41:05;7.18;;;1.67;;
55455;SDS011;46961;52.836;6.376;2022-07-29T14:43:31;4.13;;;1.85;;
55455;SDS011;46961;52.836;6.376;2022-07-29T14:45:56;5.25;;;1.73;;
55455;SDS011;46961;52.836;6.376;2022-07-29T14:48:22;4.85;;;1.75;;
55455;SDS011;46961;52.836;6.376;2022-07-29T14:50:47;4.43;;;1.83;;
55455;SDS011;46961;52.836;6.376;2022-07-29T14:53:13;4.50;;;1.60;;
55455;SDS011;46961;52.836;6.376;2022-07-29T14:55:39;6.00;;;1.73;;
55455;SDS011;46961;52.836;6.376;2022-07-29T14:58:05;5.95;;;1.80;;
55455;SDS011;46961;52.836;6.376;2022-07-29T15:00:30;2.50;;;1.40;;
55455;SDS011;46961;52.836;6.376;2022-07-29T15:02:58;5.72;;;2.10;;
55455;SDS011;46961;52.836;6.376;2022-07-29T15:05:25;6.50;;;1.48;;
55455;SDS011;46961;52.836;6.376;2022-07-29T15:07:51;5.00;;;1.52;;
55455;SDS011;46961;52.836;6.376;2022-07-29T15:10:16;5.50;;;1.60;;
55455;SDS011;46961;52.836;6.376;2022-07-29T15:12:42;3.45;;;1.40;;
55455;SDS011;46961;52.836;6.376;2022-07-29T15:15:07;4.03;;;1.50;;
55455;SDS011;46961;52.836;6.376;2022-07-29T15:17:33;4.82;;;1.70;;
55455;SDS011;46961;52.836;6.376;2022-07-29T15:19:59;2.80;;;1.60;;
55455;SDS011;46961;52.836;6.376;2022-07-29T15:22:24;5.03;;;1.75;;
55455;SDS011;46961;52.836;6.376;2022-07-29T15:24:50;3.08;;;1.80;;
55455;SDS011;46961;52.836;6.376;2022-07-29T15:27:15;7.45;;;2.22;;
55455;SDS011;46961;52.836;6.376;2022-07-29T15:29:41;3.97;;;1.95;;
55455;SDS011;46961;52.836;6.376;2022-07-29T15:32:07;3.08;;;1.70;;
55455;SDS011;46961;52.836;6.376;2022-07-29T15:34:36;4.97;;;1.50;;
55455;SDS011;46961;52.836;6.376;2022-07-29T15:37:02;4.55;;;1.67;;
55455;SDS011;46961;52.836;6.376;2022-07-29T15:39:28;5.10;;;2.90;;
55455;SDS011;46961;52.836;6.376;2022-07-29T15:41:53;3.10;;;1.70;;
55455;SDS011;46961;52.836;6.376;2022-07-29T15:44:19;7.78;;;2.60;;